Helmsdale, United Kingdom
Current Conditions -  °F | °C
As of 6:50 PM on Thursday 30 Oct 2014 (Local Time) from EGQS Reporting Station
Broken Clouds Broken Clouds  
Wind Chill: 11°   Ceiling: 3800
Heat Index: 11°   Visibility: 6mi
Dew Point: 10°   Wind: 8mph
Humidity: 94%   Direction: 160°SSE
Pressure: 29.83"   Gusts: NA
Location:  58.12°N, 3.66°W
Report Text: EGQS 301850Z 16007KT 9999 BKN038 11/10 Q1010 BLU
Loading
Personal Weather Stations






























Interactive Weather Map
Tropical Storm Tracking
New forecast layout! Learn more

10-Day Weather Forecast

Advertisements
Track Severe Weather on mobile